sensor_id;sensor_type;location;lat;lon;timestamp;P1;durP1;ratioP1;P2;durP2;ratioP2
13349;SDS011;6744;53.190;6.576;2022-10-31T00:01:30;11.27;;;10.17;;
13349;SDS011;6744;53.190;6.576;2022-10-31T00:03:57;10.80;;;9.77;;
13349;SDS011;6744;53.190;6.576;2022-10-31T00:06:23;10.83;;;9.73;;
13349;SDS011;6744;53.190;6.576;2022-10-31T00:08:53;11.50;;;10.40;;
13349;SDS011;6744;53.190;6.576;2022-10-31T00:11:29;11.50;;;10.30;;
13349;SDS011;6744;53.190;6.576;2022-10-31T00:13:54;12.37;;;10.07;;
13349;SDS011;6744;53.190;6.576;2022-10-31T00:16:20;12.10;;;10.70;;
13349;SDS011;6744;53.190;6.576;2022-10-31T00:18:47;11.60;;;10.40;;
13349;SDS011;6744;53.190;6.576;2022-10-31T00:21:16;12.43;;;10.97;;
13349;SDS011;6744;53.190;6.576;2022-10-31T00:23:42;12.53;;;11.17;;
13349;SDS011;6744;53.190;6.576;2022-10-31T00:26:07;11.93;;;10.73;;
13349;SDS011;6744;53.190;6.576;2022-10-31T00:28:33;12.47;;;11.17;;
13349;SDS011;6744;53.190;6.576;2022-10-31T00:31:02;12.73;;;11.53;;
13349;SDS011;6744;53.190;6.576;2022-10-31T00:33:29;11.90;;;10.80;;
13349;SDS011;6744;53.190;6.576;2022-10-31T00:35:54;12.90;;;11.47;;
13349;SDS011;6744;53.190;6.576;2022-10-31T00:38:20;14.37;;;12.87;;
13349;SDS011;6744;53.190;6.576;2022-10-31T00:40:45;12.83;;;11.50;;
13349;SDS011;6744;53.190;6.576;2022-10-31T00:43:10;12.60;;;10.47;;
13349;SDS011;6744;53.190;6.576;2022-10-31T00:45:36;13.07;;;11.77;;
13349;SDS011;6744;53.190;6.576;2022-10-31T00:48:01;12.70;;;11.40;;
13349;SDS011;6744;53.190;6.576;2022-10-31T00:50:27;15.03;;;12.70;;
13349;SDS011;6744;53.190;6.576;2022-10-31T00:52:52;14.27;;;12.10;;
13349;SDS011;6744;53.190;6.576;2022-10-31T00:55:17;12.97;;;11.77;;
13349;SDS011;6744;53.190;6.576;2022-10-31T00:57:45;11.83;;;10.63;;
13349;SDS011;6744;53.190;6.576;2022-10-31T01:00:11;12.60;;;11.40;;
13349;SDS011;6744;53.190;6.576;2022-10-31T01:02:37;12.33;;;10.70;;
13349;SDS011;6744;53.190;6.576;2022-10-31T01:05:02;12.17;;;10.97;;
13349;SDS011;6744;53.190;6.576;2022-10-31T01:07:27;11.60;;;10.47;;
13349;SDS011;6744;53.190;6.576;2022-10-31T01:09:53;11.03;;;9.93;;
13349;SDS011;6744;53.190;6.576;2022-10-31T01:12:18;11.13;;;9.97;;
13349;SDS011;6744;53.190;6.576;2022-10-31T01:14:44;12.30;;;10.80;;
13349;SDS011;6744;53.190;6.576;2022-10-31T01:17:10;12.83;;;11.53;;
13349;SDS011;6744;53.190;6.576;2022-10-31T01:19:36;12.53;;;11.23;;
13349;SDS011;6744;53.190;6.576;2022-10-31T01:22:01;14.00;;;11.60;;
13349;SDS011;6744;53.190;6.576;2022-10-31T01:24:26;12.07;;;10.93;;
13349;SDS011;6744;53.190;6.576;2022-10-31T01:26:52;13.30;;;11.43;;
13349;SDS011;6744;53.190;6.576;2022-10-31T01:29:17;12.13;;;10.77;;
13349;SDS011;6744;53.190;6.576;2022-10-31T01:31:42;11.03;;;9.97;;
13349;SDS011;6744;53.190;6.576;2022-10-31T01:34:09;12.40;;;11.20;;
13349;SDS011;6744;53.190;6.576;2022-10-31T01:36:38;12.30;;;11.03;;
13349;SDS011;6744;53.190;6.576;2022-10-31T01:39:08;11.67;;;10.50;;
13349;SDS011;6744;53.190;6.576;2022-10-31T01:41:36;11.57;;;10.47;;
13349;SDS011;6744;53.190;6.576;2022-10-31T01:47:06;11.50;;;10.27;;
13349;SDS011;6744;53.190;6.576;2022-10-31T01:49:37;12.37;;;11.10;;
13349;SDS011;6744;53.190;6.576;2022-10-31T01:52:05;12.60;;;11.30;;
13349;SDS011;6744;53.190;6.576;2022-10-31T01:54:35;12.40;;;11.20;;
13349;SDS011;6744;53.190;6.576;2022-10-31T01:57:03;11.80;;;10.60;;
13349;SDS011;6744;53.190;6.576;2022-10-31T01:59:30;11.63;;;10.40;;
13349;SDS011;6744;53.190;6.576;2022-10-31T02:01:57;14.50;;;11.83;;
13349;SDS011;6744;53.190;6.576;2022-10-31T02:04:23;12.03;;;10.77;;
13349;SDS011;6744;53.190;6.576;2022-10-31T02:06:50;10.77;;;9.77;;
13349;SDS011;6744;53.190;6.576;2022-10-31T02:09:39;11.93;;;10.73;;
13349;SDS011;6744;53.190;6.576;2022-10-31T02:12:06;10.73;;;9.73;;
13349;SDS011;6744;53.190;6.576;2022-10-31T02:14:31;11.20;;;10.20;;
13349;SDS011;6744;53.190;6.576;2022-10-31T02:16:57;11.93;;;10.77;;
13349;SDS011;6744;53.190;6.576;2022-10-31T02:22:09;11.83;;;10.70;;
13349;SDS011;6744;53.190;6.576;2022-10-31T02:25:03;11.50;;;10.40;;
13349;SDS011;6744;53.190;6.576;2022-10-31T02:30:03;10.53;;;9.53;;
13349;SDS011;6744;53.190;6.576;2022-10-31T02:32:33;12.23;;;10.97;;
13349;SDS011;6744;53.190;6.576;2022-10-31T02:40:43;11.27;;;10.17;;
13349;SDS011;6744;53.190;6.576;2022-10-31T02:42:47;11.87;;;10.63;;
13349;SDS011;6744;53.190;6.576;2022-10-31T02:47:51;12.27;;;10.73;;
13349;SDS011;6744;53.190;6.576;2022-10-31T02:50:27;11.93;;;10.77;;
13349;SDS011;6744;53.190;6.576;2022-10-31T02:52:56;12.23;;;10.97;;
13349;SDS011;6744;53.190;6.576;2022-10-31T02:57:51;14.00;;;12.43;;
13349;SDS011;6744;53.190;6.576;2022-10-31T03:00:22;12.20;;;11.00;;
13349;SDS011;6744;53.190;6.576;2022-10-31T03:08:01;12.20;;;11.10;;
13349;SDS011;6744;53.190;6.576;2022-10-31T03:11:20;15.07;;;12.87;;
13349;SDS011;6744;53.190;6.576;2022-10-31T03:16:14;12.10;;;10.90;;
13349;SDS011;6744;53.190;6.576;2022-10-31T03:18:40;13.30;;;11.93;;
13349;SDS011;6744;53.190;6.576;2022-10-31T03:21:14;13.20;;;11.80;;
13349;SDS011;6744;53.190;6.576;2022-10-31T03:23:43;12.63;;;11.43;;
13349;SDS011;6744;53.190;6.576;2022-10-31T03:26:11;12.97;;;11.63;;
13349;SDS011;6744;53.190;6.576;2022-10-31T03:28:39;11.97;;;10.87;;
13349;SDS011;6744;53.190;6.576;2022-10-31T03:31:10;12.73;;;11.53;;
13349;SDS011;6744;53.190;6.576;2022-10-31T03:33:39;11.83;;;10.57;;
13349;SDS011;6744;53.190;6.576;2022-10-31T03:36:04;12.43;;;11.23;;
13349;SDS011;6744;53.190;6.576;2022-10-31T03:38:31;13.67;;;12.20;;
13349;SDS011;6744;53.190;6.576;2022-10-31T03:40:58;12.10;;;11.00;;
13349;SDS011;6744;53.190;6.576;2022-10-31T03:43:26;12.57;;;11.37;;
13349;SDS011;6744;53.190;6.576;2022-10-31T03:45:53;11.10;;;9.97;;
13349;SDS011;6744;53.190;6.576;2022-10-31T03:48:19;12.23;;;11.03;;
13349;SDS011;6744;53.190;6.576;2022-10-31T03:50:59;10.37;;;9.27;;
13349;SDS011;6744;53.190;6.576;2022-10-31T03:53:39;11.70;;;10.50;;
13349;SDS011;6744;53.190;6.576;2022-10-31T03:56:13;12.03;;;10.83;;
13349;SDS011;6744;53.190;6.576;2022-10-31T03:58:43;12.90;;;11.57;;
13349;SDS011;6744;53.190;6.576;2022-10-31T04:01:17;11.73;;;10.57;;
13349;SDS011;6744;53.190;6.576;2022-10-31T04:03:44;11.70;;;10.57;;
13349;SDS011;6744;53.190;6.576;2022-10-31T04:06:10;10.40;;;9.30;;
13349;SDS011;6744;53.190;6.576;2022-10-31T04:08:40;10.40;;;9.30;;
13349;SDS011;6744;53.190;6.576;2022-10-31T04:11:09;10.13;;;9.20;;
13349;SDS011;6744;53.190;6.576;2022-10-31T04:13:37;11.40;;;10.30;;
13349;SDS011;6744;53.190;6.576;2022-10-31T04:16:03;10.23;;;9.10;;
13349;SDS011;6744;53.190;6.576;2022-10-31T04:18:29;10.20;;;9.20;;
13349;SDS011;6744;53.190;6.576;2022-10-31T04:21:01;10.17;;;9.17;;
13349;SDS011;6744;53.190;6.576;2022-10-31T04:23:29;9.57;;;8.67;;
13349;SDS011;6744;53.190;6.576;2022-10-31T04:25:54;10.03;;;8.80;;
13349;SDS011;6744;53.190;6.576;2022-10-31T04:28:20;9.30;;;8.33;;
13349;SDS011;6744;53.190;6.576;2022-10-31T04:30:45;10.00;;;9.00;;
13349;SDS011;6744;53.190;6.576;2022-10-31T04:33:10;10.73;;;9.73;;
13349;SDS011;6744;53.190;6.576;2022-10-31T04:35:36;10.07;;;9.17;;
13349;SDS011;6744;53.190;6.576;2022-10-31T04:38:01;9.63;;;8.70;;
13349;SDS011;6744;53.190;6.576;2022-10-31T04:40:26;9.17;;;8.37;;
13349;SDS011;6744;53.190;6.576;2022-10-31T04:42:52;9.50;;;8.60;;
13349;SDS011;6744;53.190;6.576;2022-10-31T04:45:17;9.60;;;8.80;;
13349;SDS011;6744;53.190;6.576;2022-10-31T04:47:42;9.67;;;8.77;;
13349;SDS011;6744;53.190;6.576;2022-10-31T04:50:08;9.70;;;8.80;;
13349;SDS011;6744;53.190;6.576;2022-10-31T04:52:38;9.03;;;8.23;;
13349;SDS011;6744;53.190;6.576;2022-10-31T04:55:04;10.30;;;9.27;;
13349;SDS011;6744;53.190;6.576;2022-10-31T04:57:30;9.00;;;8.10;;
13349;SDS011;6744;53.190;6.576;2022-10-31T04:59:55;9.10;;;8.30;;
13349;SDS011;6744;53.190;6.576;2022-10-31T05:02:20;10.07;;;9.07;;
13349;SDS011;6744;53.190;6.576;2022-10-31T05:04:46;10.33;;;9.33;;
13349;SDS011;6744;53.190;6.576;2022-10-31T05:07:11;8.93;;;8.03;;
13349;SDS011;6744;53.190;6.576;2022-10-31T05:09:36;10.43;;;9.43;;
13349;SDS011;6744;53.190;6.576;2022-10-31T05:12:02;10.10;;;9.20;;
13349;SDS011;6744;53.190;6.576;2022-10-31T05:14:28;9.17;;;8.23;;
13349;SDS011;6744;53.190;6.576;2022-10-31T05:16:53;8.73;;;7.90;;
13349;SDS011;6744;53.190;6.576;2022-10-31T05:19:18;9.17;;;8.33;;
13349;SDS011;6744;53.190;6.576;2022-10-31T05:21:44;9.97;;;9.07;;
13349;SDS011;6744;53.190;6.576;2022-10-31T05:24:09;9.80;;;8.90;;
13349;SDS011;6744;53.190;6.576;2022-10-31T05:26:34;9.87;;;8.97;;
13349;SDS011;6744;53.190;6.576;2022-10-31T05:29:00;10.37;;;9.37;;
13349;SDS011;6744;53.190;6.576;2022-10-31T05:31:25;10.20;;;9.20;;
13349;SDS011;6744;53.190;6.576;2022-10-31T05:33:50;10.00;;;9.10;;
13349;SDS011;6744;53.190;6.576;2022-10-31T05:36:16;10.43;;;9.57;;
13349;SDS011;6744;53.190;6.576;2022-10-31T05:38:41;10.07;;;9.07;;
13349;SDS011;6744;53.190;6.576;2022-10-31T05:41:07;10.23;;;9.30;;
13349;SDS011;6744;53.190;6.576;2022-10-31T05:43:32;11.47;;;10.30;;
13349;SDS011;6744;53.190;6.576;2022-10-31T05:45:57;11.37;;;10.17;;
13349;SDS011;6744;53.190;6.576;2022-10-31T05:48:23;9.43;;;8.63;;
13349;SDS011;6744;53.190;6.576;2022-10-31T05:50:48;10.23;;;9.27;;
13349;SDS011;6744;53.190;6.576;2022-10-31T05:53:14;10.80;;;9.83;;
13349;SDS011;6744;53.190;6.576;2022-10-31T05:55:40;9.93;;;8.97;;
13349;SDS011;6744;53.190;6.576;2022-10-31T05:58:05;10.57;;;9.43;;
13349;SDS011;6744;53.190;6.576;2022-10-31T06:00:31;10.17;;;9.27;;
13349;SDS011;6744;53.190;6.576;2022-10-31T06:02:59;10.07;;;9.17;;
13349;SDS011;6744;53.190;6.576;2022-10-31T06:05:26;10.50;;;9.50;;
13349;SDS011;6744;53.190;6.576;2022-10-31T06:07:51;10.90;;;9.90;;
13349;SDS011;6744;53.190;6.576;2022-10-31T06:10:17;10.33;;;9.33;;
13349;SDS011;6744;53.190;6.576;2022-10-31T06:12:44;9.97;;;9.03;;
13349;SDS011;6744;53.190;6.576;2022-10-31T06:15:09;10.33;;;9.40;;
13349;SDS011;6744;53.190;6.576;2022-10-31T06:17:35;10.50;;;9.50;;
13349;SDS011;6744;53.190;6.576;2022-10-31T06:20:00;11.00;;;10.00;;
13349;SDS011;6744;53.190;6.576;2022-10-31T06:22:26;9.60;;;8.80;;
13349;SDS011;6744;53.190;6.576;2022-10-31T06:24:52;10.40;;;9.40;;
13349;SDS011;6744;53.190;6.576;2022-10-31T06:27:17;11.30;;;10.20;;
13349;SDS011;6744;53.190;6.576;2022-10-31T06:29:42;11.17;;;10.10;;
13349;SDS011;6744;53.190;6.576;2022-10-31T06:32:11;11.63;;;10.53;;
13349;SDS011;6744;53.190;6.576;2022-10-31T06:34:37;11.30;;;10.10;;
13349;SDS011;6744;53.190;6.576;2022-10-31T06:37:03;11.47;;;10.27;;
13349;SDS011;6744;53.190;6.576;2022-10-31T06:39:28;10.23;;;9.23;;
13349;SDS011;6744;53.190;6.576;2022-10-31T06:41:54;11.13;;;10.03;;
13349;SDS011;6744;53.190;6.576;2022-10-31T06:44:19;10.93;;;9.93;;
13349;SDS011;6744;53.190;6.576;2022-10-31T06:46:46;11.40;;;10.30;;
13349;SDS011;6744;53.190;6.576;2022-10-31T06:49:12;10.73;;;9.80;;
13349;SDS011;6744;53.190;6.576;2022-10-31T06:51:37;11.10;;;10.10;;
13349;SDS011;6744;53.190;6.576;2022-10-31T06:54:03;11.47;;;10.40;;
13349;SDS011;6744;53.190;6.576;2022-10-31T06:56:28;10.20;;;9.30;;
13349;SDS011;6744;53.190;6.576;2022-10-31T06:58:54;9.83;;;9.03;;
13349;SDS011;6744;53.190;6.576;2022-10-31T07:01:19;10.70;;;9.80;;
13349;SDS011;6744;53.190;6.576;2022-10-31T07:03:44;11.23;;;10.17;;
13349;SDS011;6744;53.190;6.576;2022-10-31T07:06:10;11.07;;;9.97;;
13349;SDS011;6744;53.190;6.576;2022-10-31T07:08:35;11.27;;;10.27;;
13349;SDS011;6744;53.190;6.576;2022-10-31T07:11:00;10.17;;;9.27;;
13349;SDS011;6744;53.190;6.576;2022-10-31T07:13:26;10.40;;;9.50;;
13349;SDS011;6744;53.190;6.576;2022-10-31T07:15:58;11.40;;;10.30;;
13349;SDS011;6744;53.190;6.576;2022-10-31T07:18:25;11.33;;;10.23;;
13349;SDS011;6744;53.190;6.576;2022-10-31T07:20:51;12.20;;;11.00;;
13349;SDS011;6744;53.190;6.576;2022-10-31T07:23:17;12.30;;;11.20;;
13349;SDS011;6744;53.190;6.576;2022-10-31T07:25:43;12.50;;;11.23;;
13349;SDS011;6744;53.190;6.576;2022-10-31T07:28:08;11.83;;;10.63;;
13349;SDS011;6744;53.190;6.576;2022-10-31T07:30:34;11.07;;;10.13;;
13349;SDS011;6744;53.190;6.576;2022-10-31T07:33:00;11.97;;;10.87;;
13349;SDS011;6744;53.190;6.576;2022-10-31T07:35:27;12.17;;;10.90;;
13349;SDS011;6744;53.190;6.576;2022-10-31T07:37:53;11.73;;;10.63;;
13349;SDS011;6744;53.190;6.576;2022-10-31T07:40:19;11.33;;;10.23;;
13349;SDS011;6744;53.190;6.576;2022-10-31T07:42:47;11.57;;;10.67;;
13349;SDS011;6744;53.190;6.576;2022-10-31T07:45:15;14.20;;;12.97;;
13349;SDS011;6744;53.190;6.576;2022-10-31T07:47:42;15.87;;;14.33;;
13349;SDS011;6744;53.190;6.576;2022-10-31T07:50:09;17.77;;;15.90;;
13349;SDS011;6744;53.190;6.576;2022-10-31T07:52:36;17.57;;;15.77;;
13349;SDS011;6744;53.190;6.576;2022-10-31T07:55:02;16.60;;;14.90;;
13349;SDS011;6744;53.190;6.576;2022-10-31T07:57:28;18.80;;;16.90;;
13349;SDS011;6744;53.190;6.576;2022-10-31T07:59:53;16.30;;;14.70;;
13349;SDS011;6744;53.190;6.576;2022-10-31T08:02:19;16.43;;;14.83;;
13349;SDS011;6744;53.190;6.576;2022-10-31T08:04:44;15.73;;;14.23;;
13349;SDS011;6744;53.190;6.576;2022-10-31T08:07:09;15.70;;;14.20;;
13349;SDS011;6744;53.190;6.576;2022-10-31T08:09:35;16.57;;;15.03;;
13349;SDS011;6744;53.190;6.576;2022-10-31T08:12:00;16.73;;;15.10;;
13349;SDS011;6744;53.190;6.576;2022-10-31T08:14:26;16.50;;;14.80;;
13349;SDS011;6744;53.190;6.576;2022-10-31T08:16:52;16.93;;;15.23;;
13349;SDS011;6744;53.190;6.576;2022-10-31T08:19:18;15.60;;;14.20;;
13349;SDS011;6744;53.190;6.576;2022-10-31T08:21:43;16.97;;;15.17;;
13349;SDS011;6744;53.190;6.576;2022-10-31T08:24:08;17.07;;;15.47;;
13349;SDS011;6744;53.190;6.576;2022-10-31T08:26:34;16.33;;;14.63;;
13349;SDS011;6744;53.190;6.576;2022-10-31T08:28:59;15.33;;;13.73;;
13349;SDS011;6744;53.190;6.576;2022-10-31T08:31:25;15.20;;;13.80;;
13349;SDS011;6744;53.190;6.576;2022-10-31T08:33:52;14.87;;;13.57;;
13349;SDS011;6744;53.190;6.576;2022-10-31T08:36:17;15.37;;;13.73;;
13349;SDS011;6744;53.190;6.576;2022-10-31T08:38:43;13.40;;;12.20;;
13349;SDS011;6744;53.190;6.576;2022-10-31T08:41:08;14.97;;;13.53;;
13349;SDS011;6744;53.190;6.576;2022-10-31T08:43:34;14.43;;;13.10;;
13349;SDS011;6744;53.190;6.576;2022-10-31T08:45:59;13.87;;;12.67;;
13349;SDS011;6744;53.190;6.576;2022-10-31T08:48:25;13.43;;;12.23;;
13349;SDS011;6744;53.190;6.576;2022-10-31T08:50:50;12.10;;;11.00;;
13349;SDS011;6744;53.190;6.576;2022-10-31T08:53:16;12.10;;;11.07;;
13349;SDS011;6744;53.190;6.576;2022-10-31T08:55:43;14.07;;;12.70;;
13349;SDS011;6744;53.190;6.576;2022-10-31T08:58:10;11.90;;;10.90;;
13349;SDS011;6744;53.190;6.576;2022-10-31T09:00:37;11.33;;;10.33;;
13349;SDS011;6744;53.190;6.576;2022-10-31T09:03:04;12.10;;;11.00;;
13349;SDS011;6744;53.190;6.576;2022-10-31T09:05:32;11.67;;;10.57;;
13349;SDS011;6744;53.190;6.576;2022-10-31T09:07:58;11.90;;;10.80;;
13349;SDS011;6744;53.190;6.576;2022-10-31T09:10:24;12.53;;;11.40;;
13349;SDS011;6744;53.190;6.576;2022-10-31T09:13:00;11.90;;;10.90;;
13349;SDS011;6744;53.190;6.576;2022-10-31T09:15:31;12.10;;;11.00;;
13349;SDS011;6744;53.190;6.576;2022-10-31T09:17:56;10.33;;;9.53;;
13349;SDS011;6744;53.190;6.576;2022-10-31T09:20:22;12.77;;;11.57;;
13349;SDS011;6744;53.190;6.576;2022-10-31T09:22:47;12.80;;;11.60;;
13349;SDS011;6744;53.190;6.576;2022-10-31T09:25:12;12.47;;;11.33;;
13349;SDS011;6744;53.190;6.576;2022-10-31T09:27:38;11.77;;;10.73;;
13349;SDS011;6744;53.190;6.576;2022-10-31T09:30:04;10.73;;;9.73;;
13349;SDS011;6744;53.190;6.576;2022-10-31T09:32:29;11.87;;;10.77;;
13349;SDS011;6744;53.190;6.576;2022-10-31T09:34:55;10.30;;;9.30;;
13349;SDS011;6744;53.190;6.576;2022-10-31T09:37:20;12.20;;;11.00;;
13349;SDS011;6744;53.190;6.576;2022-10-31T09:39:45;11.27;;;10.20;;
13349;SDS011;6744;53.190;6.576;2022-10-31T09:45:06;10.40;;;9.40;;
13349;SDS011;6744;53.190;6.576;2022-10-31T09:47:50;10.63;;;9.53;;
13349;SDS011;6744;53.190;6.576;2022-10-31T09:50:28;11.50;;;10.40;;
13349;SDS011;6744;53.190;6.576;2022-10-31T09:53:25;11.20;;;10.20;;
13349;SDS011;6744;53.190;6.576;2022-10-31T09:55:51;10.93;;;9.90;;
13349;SDS011;6744;53.190;6.576;2022-10-31T09:58:25;9.60;;;8.70;;
13349;SDS011;6744;53.190;6.576;2022-10-31T10:00:51;10.53;;;9.50;;
13349;SDS011;6744;53.190;6.576;2022-10-31T10:08:39;10.23;;;9.23;;
13349;SDS011;6744;53.190;6.576;2022-10-31T10:16:16;10.27;;;9.30;;
13349;SDS011;6744;53.190;6.576;2022-10-31T10:33:09;12.43;;;11.33;;
13349;SDS011;6744;53.190;6.576;2022-10-31T10:35:44;11.90;;;10.80;;
13349;SDS011;6744;53.190;6.576;2022-10-31T10:41:02;11.63;;;10.43;;
13349;SDS011;6744;53.190;6.576;2022-10-31T10:45:59;12.27;;;11.03;;
13349;SDS011;6744;53.190;6.576;2022-10-31T10:54:07;13.40;;;12.10;;
13349;SDS011;6744;53.190;6.576;2022-10-31T10:59:28;12.77;;;11.67;;
13349;SDS011;6744;53.190;6.576;2022-10-31T11:01:55;12.27;;;10.93;;
13349;SDS011;6744;53.190;6.576;2022-10-31T11:04:34;12.27;;;11.10;;
13349;SDS011;6744;53.190;6.576;2022-10-31T11:07:07;10.67;;;9.77;;
13349;SDS011;6744;53.190;6.576;2022-10-31T11:09:34;13.43;;;12.03;;
13349;SDS011;6744;53.190;6.576;2022-10-31T11:12:05;11.63;;;10.53;;
13349;SDS011;6744;53.190;6.576;2022-10-31T11:14:48;14.00;;;11.67;;
13349;SDS011;6744;53.190;6.576;2022-10-31T11:17:36;11.80;;;10.80;;
13349;SDS011;6744;53.190;6.576;2022-10-31T11:20:04;11.53;;;10.43;;
13349;SDS011;6744;53.190;6.576;2022-10-31T11:22:42;12.43;;;11.23;;
13349;SDS011;6744;53.190;6.576;2022-10-31T11:25:25;10.63;;;9.47;;
13349;SDS011;6744;53.190;6.576;2022-10-31T11:28:09;10.07;;;9.07;;
13349;SDS011;6744;53.190;6.576;2022-10-31T11:30:45;9.53;;;8.70;;
13349;SDS011;6744;53.190;6.576;2022-10-31T11:33:31;9.10;;;8.23;;
13349;SDS011;6744;53.190;6.576;2022-10-31T11:35:59;8.77;;;7.87;;
13349;SDS011;6744;53.190;6.576;2022-10-31T11:38:29;8.43;;;7.63;;
13349;SDS011;6744;53.190;6.576;2022-10-31T11:41:41;8.37;;;7.57;;
13349;SDS011;6744;53.190;6.576;2022-10-31T11:43:55;8.13;;;7.33;;
13349;SDS011;6744;53.190;6.576;2022-10-31T11:46:28;8.30;;;7.37;;
13349;SDS011;6744;53.190;6.576;2022-10-31T11:48:58;6.97;;;6.17;;
13349;SDS011;6744;53.190;6.576;2022-10-31T11:51:27;8.47;;;6.70;;
13349;SDS011;6744;53.190;6.576;2022-10-31T11:53:56;7.33;;;6.13;;
13349;SDS011;6744;53.190;6.576;2022-10-31T11:56:22;6.60;;;5.93;;
13349;SDS011;6744;53.190;6.576;2022-10-31T11:58:55;6.70;;;6.10;;
13349;SDS011;6744;53.190;6.576;2022-10-31T12:01:24;7.10;;;5.60;;
13349;SDS011;6744;53.190;6.576;2022-10-31T12:06:38;6.10;;;5.40;;
13349;SDS011;6744;53.190;6.576;2022-10-31T12:09:10;5.73;;;4.47;;
13349;SDS011;6744;53.190;6.576;2022-10-31T12:11:44;5.00;;;4.50;;
13349;SDS011;6744;53.190;6.576;2022-10-31T12:26:03;7.43;;;5.20;;
13349;SDS011;6744;53.190;6.576;2022-10-31T12:35:03;7.67;;;5.37;;
13349;SDS011;6744;53.190;6.576;2022-10-31T12:37:44;6.57;;;4.90;;
13349;SDS011;6744;53.190;6.576;2022-10-31T12:48:49;6.03;;;4.93;;
13349;SDS011;6744;53.190;6.576;2022-10-31T12:59:30;7.23;;;5.00;;
13349;SDS011;6744;53.190;6.576;2022-10-31T13:02:04;7.00;;;4.93;;
13349;SDS011;6744;53.190;6.576;2022-10-31T13:04:51;5.63;;;3.90;;
13349;SDS011;6744;53.190;6.576;2022-10-31T13:07:23;4.03;;;3.40;;
13349;SDS011;6744;53.190;6.576;2022-10-31T13:12:20;4.83;;;3.40;;
13349;SDS011;6744;53.190;6.576;2022-10-31T13:14:54;7.33;;;4.27;;
13349;SDS011;6744;53.190;6.576;2022-10-31T13:20:17;6.33;;;4.30;;
13349;SDS011;6744;53.190;6.576;2022-10-31T13:23:05;8.03;;;4.17;;
13349;SDS011;6744;53.190;6.576;2022-10-31T13:25:39;4.37;;;3.37;;
13349;SDS011;6744;53.190;6.576;2022-10-31T13:28:12;6.27;;;3.87;;
13349;SDS011;6744;53.190;6.576;2022-10-31T13:30:51;4.97;;;3.33;;
13349;SDS011;6744;53.190;6.576;2022-10-31T13:38:29;5.20;;;3.63;;
13349;SDS011;6744;53.190;6.576;2022-10-31T13:41:11;5.57;;;3.70;;
13349;SDS011;6744;53.190;6.576;2022-10-31T13:44:39;5.83;;;3.93;;
13349;SDS011;6744;53.190;6.576;2022-10-31T13:46:49;7.03;;;3.50;;
13349;SDS011;6744;53.190;6.576;2022-10-31T13:54:42;6.00;;;3.50;;
13349;SDS011;6744;53.190;6.576;2022-10-31T13:57:17;5.40;;;3.90;;
13349;SDS011;6744;53.190;6.576;2022-10-31T13:59:54;7.70;;;4.50;;
13349;SDS011;6744;53.190;6.576;2022-10-31T14:02:26;5.33;;;3.77;;
13349;SDS011;6744;53.190;6.576;2022-10-31T14:04:59;6.00;;;3.70;;
13349;SDS011;6744;53.190;6.576;2022-10-31T14:07:27;7.33;;;4.17;;
13349;SDS011;6744;53.190;6.576;2022-10-31T14:09:55;5.67;;;3.77;;
13349;SDS011;6744;53.190;6.576;2022-10-31T14:12:29;7.07;;;4.20;;
13349;SDS011;6744;53.190;6.576;2022-10-31T14:15:02;7.00;;;4.67;;
13349;SDS011;6744;53.190;6.576;2022-10-31T14:17:40;5.47;;;3.97;;
13349;SDS011;6744;53.190;6.576;2022-10-31T14:22:37;6.30;;;4.20;;
13349;SDS011;6744;53.190;6.576;2022-10-31T14:28:22;5.93;;;3.37;;
13349;SDS011;6744;53.190;6.576;2022-10-31T14:30:57;7.87;;;4.40;;
13349;SDS011;6744;53.190;6.576;2022-10-31T14:33:27;6.37;;;3.80;;
13349;SDS011;6744;53.190;6.576;2022-10-31T14:46:18;4.63;;;3.27;;
13349;SDS011;6744;53.190;6.576;2022-10-31T14:51:49;6.93;;;3.83;;
13349;SDS011;6744;53.190;6.576;2022-10-31T14:54:35;7.40;;;4.00;;
13349;SDS011;6744;53.190;6.576;2022-10-31T14:57:06;9.00;;;4.57;;
13349;SDS011;6744;53.190;6.576;2022-10-31T14:59:35;6.70;;;3.97;;
13349;SDS011;6744;53.190;6.576;2022-10-31T15:02:09;6.87;;;4.63;;
13349;SDS011;6744;53.190;6.576;2022-10-31T15:04:45;7.60;;;4.60;;
13349;SDS011;6744;53.190;6.576;2022-10-31T15:07:13;8.07;;;4.77;;
13349;SDS011;6744;53.190;6.576;2022-10-31T15:09:41;5.87;;;4.40;;
13349;SDS011;6744;53.190;6.576;2022-10-31T15:12:41;7.43;;;4.20;;
13349;SDS011;6744;53.190;6.576;2022-10-31T15:17:57;8.47;;;4.90;;
13349;SDS011;6744;53.190;6.576;2022-10-31T15:20:31;8.10;;;4.73;;
13349;SDS011;6744;53.190;6.576;2022-10-31T15:23:01;5.97;;;4.13;;
13349;SDS011;6744;53.190;6.576;2022-10-31T15:25:34;7.97;;;4.53;;
13349;SDS011;6744;53.190;6.576;2022-10-31T15:27:59;5.13;;;4.30;;
13349;SDS011;6744;53.190;6.576;2022-10-31T15:30:26;7.30;;;4.80;;
13349;SDS011;6744;53.190;6.576;2022-10-31T15:32:52;7.83;;;4.57;;
13349;SDS011;6744;53.190;6.576;2022-10-31T15:35:22;6.43;;;4.43;;
13349;SDS011;6744;53.190;6.576;2022-10-31T15:37:52;6.63;;;4.50;;
13349;SDS011;6744;53.190;6.576;2022-10-31T15:40:18;5.50;;;4.80;;
13349;SDS011;6744;53.190;6.576;2022-10-31T15:42:53;6.67;;;4.73;;
13349;SDS011;6744;53.190;6.576;2022-10-31T15:45:25;6.90;;;4.67;;
13349;SDS011;6744;53.190;6.576;2022-10-31T15:50:38;10.90;;;6.83;;
13349;SDS011;6744;53.190;6.576;2022-10-31T15:53:05;8.33;;;5.83;;
13349;SDS011;6744;53.190;6.576;2022-10-31T15:55:37;7.23;;;5.87;;
13349;SDS011;6744;53.190;6.576;2022-10-31T15:58:22;10.33;;;7.10;;
13349;SDS011;6744;53.190;6.576;2022-10-31T16:01:19;8.77;;;6.87;;
13349;SDS011;6744;53.190;6.576;2022-10-31T16:03:54;11.90;;;7.80;;
13349;SDS011;6744;53.190;6.576;2022-10-31T16:06:24;10.27;;;7.50;;
13349;SDS011;6744;53.190;6.576;2022-10-31T16:08:50;8.40;;;7.20;;
13349;SDS011;6744;53.190;6.576;2022-10-31T16:11:16;10.57;;;7.70;;
13349;SDS011;6744;53.190;6.576;2022-10-31T16:13:54;9.80;;;7.63;;
13349;SDS011;6744;53.190;6.576;2022-10-31T16:16:21;10.17;;;7.50;;
13349;SDS011;6744;53.190;6.576;2022-10-31T16:18:47;9.23;;;7.33;;
13349;SDS011;6744;53.190;6.576;2022-10-31T16:21:14;11.30;;;8.47;;
13349;SDS011;6744;53.190;6.576;2022-10-31T16:23:43;11.20;;;8.53;;
13349;SDS011;6744;53.190;6.576;2022-10-31T16:26:12;10.57;;;7.57;;
13349;SDS011;6744;53.190;6.576;2022-10-31T16:28:49;10.03;;;7.60;;
13349;SDS011;6744;53.190;6.576;2022-10-31T16:31:24;8.97;;;7.30;;
13349;SDS011;6744;53.190;6.576;2022-10-31T16:34:00;9.77;;;7.63;;
13349;SDS011;6744;53.190;6.576;2022-10-31T16:38:52;8.60;;;7.00;;
13349;SDS011;6744;53.190;6.576;2022-10-31T16:41:17;7.67;;;6.53;;
13349;SDS011;6744;53.190;6.576;2022-10-31T16:43:43;8.97;;;6.97;;
13349;SDS011;6744;53.190;6.576;2022-10-31T16:46:11;9.17;;;7.37;;
13349;SDS011;6744;53.190;6.576;2022-10-31T16:48:39;10.10;;;6.60;;
13349;SDS011;6744;53.190;6.576;2022-10-31T16:51:06;9.17;;;6.80;;
13349;SDS011;6744;53.190;6.576;2022-10-31T16:53:32;8.47;;;6.43;;
13349;SDS011;6744;53.190;6.576;2022-10-31T16:55:58;6.00;;;5.40;;
13349;SDS011;6744;53.190;6.576;2022-10-31T16:58:25;7.50;;;6.23;;
13349;SDS011;6744;53.190;6.576;2022-10-31T17:00:52;9.50;;;6.30;;
13349;SDS011;6744;53.190;6.576;2022-10-31T17:03:18;8.73;;;6.60;;
13349;SDS011;6744;53.190;6.576;2022-10-31T17:05:44;8.47;;;5.80;;
13349;SDS011;6744;53.190;6.576;2022-10-31T17:08:10;7.13;;;6.00;;
13349;SDS011;6744;53.190;6.576;2022-10-31T17:10:35;9.90;;;6.93;;
13349;SDS011;6744;53.190;6.576;2022-10-31T17:13:02;7.30;;;6.17;;
13349;SDS011;6744;53.190;6.576;2022-10-31T17:15:31;6.63;;;6.03;;
13349;SDS011;6744;53.190;6.576;2022-10-31T17:18:03;8.63;;;6.63;;
13349;SDS011;6744;53.190;6.576;2022-10-31T17:20:30;8.10;;;6.87;;
13349;SDS011;6744;53.190;6.576;2022-10-31T17:22:56;8.87;;;7.23;;
13349;SDS011;6744;53.190;6.576;2022-10-31T17:25:23;8.37;;;7.47;;